Catalonia — 9HWS7 — position and weather

sailwx.info

Track history (hours):
 
Tides and Currents Weather Stations Pressure Air Temp Water Temp Dewpoint Dewpoint Depression Visibility Wind Speed Wind Dir Waves Ship Positions

Catalonia

Last reported at 2015-Nov-18 14:29 UTC. Time now 2016-Feb-11 12:57 UTC.
Position N 34°45' W 009°55'.
Warning: this ship's position is months out of date.

Length 189 m; draft 7.1 m.

Type: Cargo ship. MMSI: 215929000.

Date/timePositionNaut miles runAvg speedWind from/ knotsBaromVisibWave heightAir tempDewpointWater temp
2015-Nov-18 14:29N 34°45' W 009°55'2513.0
2015-Nov-18 12:33N 34°50' W 009°25'1713.2
2015-Nov-18 11:17N 34°56' W 009°06'1313.1
2015-Nov-18 10:17N 35°01' W 008°51'6213.0
2015-Nov-18 05:33N 35°26' W 007°42'1312.7
2015-Nov-18 04:32N 35°31' W 007°28'3913.0
2015-Nov-18 01:34N 35°47' W 006°44'4112.7
2015-Nov-17 22:20N 35°57' W 005°54'2011.3
2015-Nov-17 20:33N 35°59' W 005°30'1212.1
2015-Nov-17 19:33N 36°03' W 005°16'10613.0
2015-Nov-17 11:24N 36°19' W 003°06'1213.7
2015-Nov-17 10:33N 36°21' W 002°52'1413.6
2015-Nov-17 09:33N 36°23' W 002°35'1413.7
2015-Nov-17 08:33N 36°25' W 002°18'1313.5
2015-Nov-17 07:32N 36°27' W 002°02'5913.5
2015-Nov-17 03:09N 36°36' W 000°49'3613.7
2015-Nov-17 00:33N 36°42' W 000°05'1413.6
2015-Nov-16 23:32N 36°44' E 000°12'1413.4
2015-Nov-16 22:30N 36°47' E 000°29'1313.0
2015-Nov-16 21:31N 36°49' E 000°45'1412.6
2015-Nov-16 20:25N 36°51' E 001°02'1112.5
2015-Nov-16 19:31N 36°53' E 001°16'1312.8
2015-Nov-16 18:32N 36°55' E 001°31'1313.4
2015-Nov-16 17:34N 36°57' E 001°47'1413.4
2015-Nov-16 16:31N 36°59' E 002°04'11013.1
2015-Nov-16 08:05N 37°14' E 004°21'813.2
2015-Nov-16 07:31N 37°14' E 004°31'  
Track history (hours):
 
Tides and Currents Weather Stations Pressure Air Temp Water Temp Dewpoint Dewpoint Depression Visibility Wind Speed Wind Dir Waves Ship Positions

Catalonia

Last reported at 2015-Nov-18 14:29 UTC. Time now 2016-Feb-11 12:57 UTC.
Position N 34°45' W 009°55'.
Warning: this ship's position is months out of date.

Length 189 m; draft 7.1 m.

Type: Cargo ship. MMSI: 215929000.

Date/timePositionNaut miles runAvg speedWind from/ knotsBaromVisibWave heightAir tempDewpointWater temp
2015-Nov-18 14:29N 34°45' W 009°55'2513.0
2015-Nov-18 12:33N 34°50' W 009°25'1713.2
2015-Nov-18 11:17N 34°56' W 009°06'1313.1
2015-Nov-18 10:17N 35°01' W 008°51'6213.0
2015-Nov-18 05:33N 35°26' W 007°42'1312.7
2015-Nov-18 04:32N 35°31' W 007°28'3913.0
2015-Nov-18 01:34N 35°47' W 006°44'4112.7
2015-Nov-17 22:20N 35°57' W 005°54'2011.3
2015-Nov-17 20:33N 35°59' W 005°30'1212.1
2015-Nov-17 19:33N 36°03' W 005°16'10613.0
2015-Nov-17 11:24N 36°19' W 003°06'1213.7
2015-Nov-17 10:33N 36°21' W 002°52'1413.6
2015-Nov-17 09:33N 36°23' W 002°35'1413.7
2015-Nov-17 08:33N 36°25' W 002°18'1313.5
2015-Nov-17 07:32N 36°27' W 002°02'5913.5
2015-Nov-17 03:09N 36°36' W 000°49'3613.7
2015-Nov-17 00:33N 36°42' W 000°05'1413.6
2015-Nov-16 23:32N 36°44' E 000°12'1413.4
2015-Nov-16 22:30N 36°47' E 000°29'1313.0
2015-Nov-16 21:31N 36°49' E 000°45'1412.6
2015-Nov-16 20:25N 36°51' E 001°02'1112.5
2015-Nov-16 19:31N 36°53' E 001°16'1312.8
2015-Nov-16 18:32N 36°55' E 001°31'1313.4
2015-Nov-16 17:34N 36°57' E 001°47'1413.4
2015-Nov-16 16:31N 36°59' E 002°04'11013.1
2015-Nov-16 08:05N 37°14' E 004°21'813.2
2015-Nov-16 07:31N 37°14' E 004°31'  

Dump ship's entire track history